TUCO2: Canadian River nr Tuttle 7ENE (Mustang)

                                SHEF ID:       TUCO2     Canadian River near Mustang, OK
STATION TYPE:
Regulating: Stage = 22.00, Flow = 9519

STAGE RIV-FLOW BAT-LOAD
ft cfs volt
Ccp-Rev Ccp-Rev Ccp-Rev
(America/Chicago)
12/15 00:00 10.33 139 12.49
12/15 01:00 10.34 141 12.41
12/15 02:00 10.37 146 12.41
12/15 03:00 10.36 144 12.41
12/15 04:00 10.45 159 12.41
12/15 05:00 10.46 161 12.41
12/15 06:00 10.45 159 12.41
12/15 07:00 10.51 169 12.41
12/15 08:00 10.53 172 12.41
12/15 09:00 10.52 171 12.41
12/15 10:00 10.53 172 12.41
12/15 11:00 10.54 174 12.41
12/15 12:00 10.58 181 12.41
12/15 13:00 10.59 183 12.41
12/15 14:00 10.60 184 12.41
12/15 15:00 10.61 186 12.41
12/15 16:00 10.60 184 12.41
12/15 17:00 10.62 188 12.41
12/15 18:00 10.61 186 12.41
12/15 19:00 10.62 188 12.33
12/15 20:00 10.62 188 12.33
12/15 21:00 10.61 186 12.33
12/15 22:00 10.61 186 12.33
12/15 23:00 10.63 189 12.33
Data processed at Sat 16Dec2023 05:35 GMT

Parsing this webpage?

Checkout our new Data API! CWMSDataAPI (CDA)

Timeseries IDs (TSIDs)

TSIDs used from left to right in the data table
TUTL.Stage.Inst.1Hour.0.Ccp-Rev
TUTL.Flow.Inst.1Hour.0.Ccp-Rev
TUTL.Volt-Battery Load.Inst.1Hour.0.Ccp-Rev

                            

All information presented herein is the property of the government of the United States of America and may be revised or deleted at any time without prior notice. Dissemination of this information without the expressed written consent of the Public Affairs Office, Tulsa District U.S. Army Corps of Engineers is strictly prohibited. These data are gathered electronically and, as presented, have NOT undergone any form of quality control. These data are NOT guaranteed to be valid or correct.